Scroll down
FLIGHT INFORMATION
Cargolux Airlines International

CLX6595

At Arrival Gate

KMIA
 ELLX
DATE: 2020-08-22
GATE: 
GATE DEPARTURE: 20:16
TAKEOFF: 20:28
DATE: 2020-08-23
GATE:  -
LANDING: 04:28
GATE ARRIVAL: 04:33
FLIGHT DATA
Crew: 
Speed: 
516 kts
Altitude: 
37,012 ft
Stage Length: 
4,110.1 nm
Block Time: 
8.3 hrs
Flight Time: 
8 hrs
Fuel Used: 
187,525 lb
Cleared Route: KMIA RIKEE VAPOR SHALW JANUS VALLY WOLFO RAMJT ETECK CANIT CARPX UKOKA OMALA ONGOT GOUGH KINER DRYED NOVOK CARAC NICSO 4850N 4940N 5030N 5020N SOMAX ATSUR RATKA LARLA XAVAP NERLA RUSIB BETUV BASIK UPALO EKRAS GALBO LGL DITAL PIGOP TABOV TSU LEQOS CTL MMD ELLX
TRACK DATA
50,000 ft 1,000 kts
AIRCRAFT INFO AND CUMULATIVE STATS
Aircraft Type: 
B748F
Registration: 
SELCAL: 
FMHP
MSN/LN: 
35821 / 1473
Total Flights: 
1
Total Block Time: 
8.2 hrs
Total Flight Time: 
8 hrs
Total Fuel Time: 
187,525 lb
DATALINK LOG | Newest first | Current as of: 2020-11-25 19:20:31
LABEL SEQUENCE CONTENT Dn/Up
QD205504:33 70.1▼ Dn
QC155004:28▼ Dn
2U4859ELLX 220520Z 25009KT CAVOK 18/14 Q1018 NOSIG▲ Up
2S4859ELLX▼ Dn
QB524120:28▼ Dn
QA403020:16 257.9▼ Dn
2U3627KMIA 220153Z 14005KT 10SM FEW030 BKN250 30/24 A2999 RMK AO2 SLP155 T03000244▲ Up
2S3627KMIA▼ Dn
A33626CLEARED TO ELLX VIA VALLY2 VALLY WOLFO AR18 ETECK M202 UKOKA M202 KINER DRYED M201 NOVOK M201 CARAC NICSO NATZ ATSUR RATKA N521 XAVAP UN521 NERLA UN491 EKRAS UN491 PIGOP UN491 TABOV UN858 TSU UM163 CTL UM163 MMD MMD5M. SQUAWK .▲ Up
Q03525[LINK ACK]▲ Up
Q03525[LINK TEST]▼ Dn


AIRCRAFT HISTORY
FLIGHT DATE FLIGHT NO. ORIGIN DESTINATION CLEARED ROUTE BLOCK TIME FLIGHT TIME FUEL USED PILOT
2020-08-22CLX6595KMIA ELLX KMIA RIKEE VAPOR SHALW JANUS VALLY WOLFO RAMJT ETECK CANIT CARPX UKOKA OMALA ONGOT GOUGH KINER DRYED NOVOK CARAC NICSO 4850N 4940N 5030N 5020N SOMAX ATSUR RATKA LARLA XAVAP NERLA RUSIB BETUV BASIK UPALO EKRAS GALBO LGL DITAL PIGOP TABOV TSU LEQOS CTL MMD ELLX8.3 hrs8 hrs187,525 lbMichael Roth